Time;durP1;ratioP1;P1;durP2;ratioP2;P2;SDS_P1;SDS_P2;PMS_P1;PMS_P2;Temp;Humidity;BMP_temperature;BMP_pressure;BME280_temperature;BME280_humidity;BME280_pressure;Samples;Min_cycle;Max_cycle;Signal;HPM_P1;HPM_P2
2023/01/13 00:00:50;;;;;;;0.90;0.80;;;;;;;8.46;100.00;99461.94;6160654;28;20050;-88
2023/01/13 00:03:52;;;;;;;1.13;1.02;;;;;;;8.57;100.00;99463.56;6159056;28;20043;-88
2023/01/13 00:06:54;;;;;;;1.20;1.00;;;;;;;8.58;100.00;99462.63;6159968;28;20038;-88
2023/01/13 00:09:56;;;;;;;1.30;1.20;;;;;;;8.65;100.00;99470.66;6158946;28;20378;-88
2023/01/13 00:12:58;;;;;;;1.60;1.10;;;;;;;8.68;100.00;99463.44;6149361;28;20046;-88
2023/01/13 00:16:14;;;;;;;1.40;1.30;;;;;;;8.72;100.00;99456.22;6160923;28;20039;-88
2023/01/13 00:19:16;;;;;;;1.30;1.20;;;;;;;8.81;100.00;99455.44;6171159;28;20043;-88
2023/01/13 00:22:18;;;;;;;1.38;1.27;;;;;;;8.82;100.00;99439.81;6159206;28;20421;-88
2023/01/13 00:25:20;;;;;;;1.00;1.00;;;;;;;8.87;100.00;99452.31;6157652;28;20042;-88
2023/01/13 00:28:22;;;;;;;1.40;1.10;;;;;;;8.91;100.00;99430.44;6154151;28;20173;-88
2023/01/13 00:31:27;;;;;;;1.25;0.90;;;;;;;8.80;100.00;99418.50;6151973;28;20039;-90
2023/01/13 00:34:29;;;;;;;1.52;0.90;;;;;;;8.75;100.00;99405.19;6156659;28;20091;-90
2023/01/13 00:37:35;;;;;;;1.85;0.80;;;;;;;8.76;100.00;99409.38;6164703;28;20043;-89
2023/01/13 00:40:37;;;;;;;0.65;0.60;;;;;;;8.63;100.00;99390.81;6162227;28;20174;-90
2023/01/13 00:43:41;;;;;;;2.13;0.50;;;;;;;8.58;100.00;99382.66;6165134;28;20516;-89
2023/01/13 00:46:43;;;;;;;2.35;0.68;;;;;;;8.54;100.00;99401.94;6163842;28;20562;-89
2023/01/13 00:49:45;;;;;;;0.60;0.60;;;;;;;8.51;100.00;99390.13;6163058;28;20121;-89
2023/01/13 00:52:47;;;;;;;0.50;0.50;;;;;;;8.54;100.00;99396.78;6162382;28;20039;-89
2023/01/13 00:55:57;;;;;;;0.75;0.60;;;;;;;8.50;100.00;99396.25;6163619;28;20417;-89
2023/01/13 00:59:02;;;;;;;0.60;0.60;;;;;;;8.39;100.00;99402.31;6163477;28;20041;-88
2023/01/13 01:02:04;;;;;;;0.90;0.88;;;;;;;8.52;100.00;99412.41;6163063;28;20449;-89
2023/01/13 01:05:07;;;;;;;1.40;0.80;;;;;;;8.55;100.00;99406.16;6163992;28;20043;-89
2023/01/13 01:08:09;;;;;;;1.38;0.70;;;;;;;8.58;100.00;99398.94;6160431;28;20535;-89
2023/01/13 01:11:26;;;;;;;0.63;0.63;;;;;;;8.71;100.00;99421.88;6165129;28;20050;-89
2023/01/13 01:14:28;;;;;;;2.38;0.70;;;;;;;8.73;100.00;99404.50;6158081;28;20345;-90
2023/01/13 01:17:30;;;;;;;2.25;0.73;;;;;;;8.73;100.00;99395.97;6164795;28;20493;-89
2023/01/13 01:20:32;;;;;;;0.50;0.50;;;;;;;8.62;100.00;99392.56;6147286;28;20058;-91
2023/01/13 01:23:35;;;;;;;1.17;0.60;;;;;;;8.56;100.00;99410.34;6163945;28;20109;-89
2023/01/13 01:26:37;;;;;;;0.95;0.60;;;;;;;8.60;100.00;99417.69;6153775;28;20047;-89
2023/01/13 01:29:39;;;;;;;0.50;0.50;;;;;;;8.57;100.00;99415.38;6160800;28;20157;-89
2023/01/13 01:32:41;;;;;;;0.50;0.50;;;;;;;8.59;100.00;99422.97;6160283;28;20043;-89
2023/01/13 01:35:43;;;;;;;0.75;0.65;;;;;;;8.60;100.00;99419.47;6163346;28;20149;-89
2023/01/13 01:38:46;;;;;;;0.50;0.50;;;;;;;8.60;100.00;99433.16;6164438;28;20053;-89
2023/01/13 01:45:21;;;;;;;0.93;0.80;;;;;;;8.65;100.00;99413.91;6156934;28;20416;-90
2023/01/13 01:48:22;;;;;;;0.70;0.70;;;;;;;8.63;100.00;99412.25;6155581;28;20136;-89
2023/01/13 01:51:29;;;;;;;0.80;0.68;;;;;;;8.67;100.00;99406.81;6163506;28;20096;-89
2023/01/13 01:54:38;;;;;;;0.77;0.77;;;;;;;8.54;100.00;99404.50;6162107;28;20118;-89
2023/01/13 01:57:55;;;;;;;1.25;0.90;;;;;;;8.43;100.00;99384.03;6161213;28;20046;-89
2023/01/13 02:01:05;;;;;;;2.00;0.68;;;;;;;8.39;100.00;99381.69;6158089;28;20035;-88
2023/01/13 02:04:15;;;;;;;2.38;0.98;;;;;;;8.33;100.00;99374.50;6162433;28;20412;-88
2023/01/13 02:07:22;;;;;;;1.43;0.80;;;;;;;8.24;100.00;99369.31;6162732;28;20053;-89
2023/01/13 02:10:27;;;;;;;0.93;0.80;;;;;;;8.17;100.00;99359.56;6159906;28;20314;-89
2023/01/13 02:13:29;;;;;;;0.68;0.68;;;;;;;7.93;100.00;99359.94;6160716;28;20051;-88
2023/01/13 02:16:32;;;;;;;4.18;0.77;;;;;;;7.88;100.00;99358.72;6167295;28;20043;-88
2023/01/13 02:20:11;;;;;;;1.60;0.98;;;;;;;7.93;100.00;99349.63;6163252;28;20085;-88
2023/01/13 02:27:33;;;;;;;1.33;0.90;;;;;;;7.81;100.00;99331.84;6159115;28;20093;-88
2023/01/13 02:34:59;;;;;;;2.42;1.00;;;;;;;7.99;100.00;99307.84;6131551;28;20162;-87
2023/01/13 02:38:02;;;;;;;4.43;1.10;;;;;;;7.95;100.00;99301.34;6132527;28;20043;-88
2023/01/13 02:44:45;;;;;;;6.05;1.20;;;;;;;7.87;100.00;99339.03;6134909;28;20055;-88
2023/01/13 02:47:49;;;;;;;3.38;1.40;;;;;;;7.72;100.00;99347.13;6133890;28;20469;-87
2023/01/13 02:51:11;;;;;;;3.80;1.20;;;;;;;7.75;100.00;99367.50;6134259;28;20051;-88
2023/01/13 02:54:18;;;;;;;4.55;1.20;;;;;;;7.78;100.00;99345.81;6134910;28;20103;-88
2023/01/13 02:57:23;;;;;;;7.32;1.65;;;;;;;7.74;100.00;99347.00;6134120;28;20218;-88
2023/01/13 03:00:27;;;;;;;5.85;1.23;;;;;;;7.68;100.00;99352.69;6134225;28;20047;-88
2023/01/13 03:03:29;;;;;;;4.63;1.83;;;;;;;7.60;100.00;99342.22;6135285;28;20527;-88
2023/01/13 03:07:05;;;;;;;4.28;1.58;;;;;;;7.59;100.00;99341.41;6150714;28;20047;-88
2023/01/13 03:10:33;;;;;;;7.45;1.70;;;;;;;7.47;100.00;99356.13;6109503;29;20601;-88
2023/01/13 03:13:44;;;;;;;5.38;1.90;;;;;;;7.44;100.00;99346.09;6109933;29;20051;-87
2023/01/13 03:17:15;;;;;;;4.80;1.50;;;;;;;7.58;100.00;99354.41;6110186;29;20138;-87
2023/01/13 03:20:31;;;;;;;8.52;1.92;;;;;;;7.71;100.00;99311.22;6033321;29;20518;-87
2023/01/13 03:23:57;;;;;;;8.90;1.80;;;;;;;7.71;100.00;99321.53;6040379;29;20091;-88
2023/01/13 03:27:02;;;;;;;5.55;2.38;;;;;;;7.66;100.00;99326.25;6039554;29;20109;-88
2023/01/13 03:30:23;;;;;;;6.88;1.73;;;;;;;7.62;100.00;99360.94;6021249;29;20561;-86
2023/01/13 03:33:30;;;;;;;4.38;1.98;;;;;;;7.71;100.00;99337.78;6039827;29;20065;-87
2023/01/13 03:36:35;;;;;;;5.97;1.75;;;;;;;7.64;100.00;99352.13;6035205;29;20098;-86
2023/01/13 03:39:42;;;;;;;4.13;1.90;;;;;;;7.70;100.00;99355.94;6034971;29;20435;-86
2023/01/13 03:46:22;;;;;;;4.05;1.45;;;;;;;7.55;100.00;99352.91;6058280;29;20060;-85
2023/01/13 03:49:32;;;;;;;8.27;1.35;;;;;;;7.48;100.00;99359.56;6087523;29;20115;-86
2023/01/13 03:52:39;;;;;;;2.87;1.07;;;;;;;7.43;100.00;99336.75;6087808;29;20040;-87
2023/01/13 03:55:46;;;;;;;4.05;1.48;;;;;;;7.22;100.00;99338.56;6073983;28;20088;-87
2023/01/13 03:58:51;;;;;;;5.43;1.40;;;;;;;7.10;100.00;99335.25;6160227;28;20512;-87
2023/01/13 04:02:05;;;;;;;10.35;1.77;;;;;;;7.16;100.00;99344.25;6161679;28;20053;-87
2023/01/13 04:05:09;;;;;;;6.65;1.67;;;;;;;7.00;100.00;99335.22;6151038;28;20069;-86
2023/01/13 04:08:15;;;;;;;7.18;2.13;;;;;;;7.14;100.00;99335.84;6163555;28;20043;-86
2023/01/13 04:11:25;;;;;;;6.82;1.60;;;;;;;7.06;100.00;99334.72;6165535;28;20038;-86
2023/01/13 04:14:28;;;;;;;6.93;1.60;;;;;;;7.19;100.00;99333.69;6157809;28;20046;-86
2023/01/13 04:17:30;;;;;;;5.97;1.48;;;;;;;7.20;100.00;99340.44;6166162;28;20058;-86
2023/01/13 04:20:32;;;;;;;5.82;1.52;;;;;;;7.18;100.00;99334.59;6168195;28;20078;-86
2023/01/13 04:23:34;;;;;;;9.30;1.75;;;;;;;7.00;100.00;99335.22;6166887;28;20046;-86
2023/01/13 04:26:36;;;;;;;4.50;1.60;;;;;;;6.88;100.00;99341.38;6165608;28;20039;-86
2023/01/13 04:29:37;;;;;;;7.45;1.98;;;;;;;6.84;100.00;99345.97;6165973;28;20393;-86
2023/01/13 04:32:40;;;;;;;5.95;2.33;;;;;;;6.94;100.00;99356.31;6155839;28;20519;-86
2023/01/13 04:35:43;;;;;;;11.38;2.30;;;;;;;7.06;100.00;99354.47;6149120;28;20035;-85
2023/01/13 04:38:45;;;;;;;9.27;2.10;;;;;;;7.12;100.00;99343.66;6161713;28;20069;-86
2023/01/13 04:42:02;;;;;;;7.35;1.90;;;;;;;7.04;100.00;99346.88;6162415;28;20070;-85
2023/01/13 04:45:08;;;;;;;10.98;2.78;;;;;;;6.95;100.00;99351.97;6166699;28;20038;-85
2023/01/13 04:48:10;;;;;;;8.30;2.05;;;;;;;7.04;100.00;99346.06;6167597;28;20492;-86
2023/01/13 04:51:12;;;;;;;10.20;2.65;;;;;;;7.21;100.00;99336.94;6165613;28;20055;-86
2023/01/13 04:54:15;;;;;;;11.32;2.00;;;;;;;7.26;100.00;99334.81;6159511;28;20042;-86
2023/01/13 04:57:16;;;;;;;7.70;1.90;;;;;;;7.18;100.00;99339.75;6166814;28;20393;-85
2023/01/13 05:00:22;;;;;;;10.80;2.10;;;;;;;7.21;100.00;99334.38;6167387;28;20046;-85
2023/01/13 05:03:25;;;;;;;6.60;2.33;;;;;;;7.10;100.00;99323.22;6167613;28;20053;-85
2023/01/13 05:06:27;;;;;;;5.53;2.00;;;;;;;6.99;100.00;99323.28;6156683;28;20043;-85
2023/01/13 05:09:28;;;;;;;8.23;2.25;;;;;;;6.82;100.00;99326.44;6167729;28;20053;-85
2023/01/13 05:19:12;;;;;;;11.93;2.00;;;;;;;6.34;100.00;99332.91;6159892;28;20055;-85
2023/01/13 05:25:38;;;;;;;7.97;1.83;;;;;;;6.53;100.00;99327.06;6164148;28;20039;-84
2023/01/13 05:28:40;;;;;;;10.10;2.13;;;;;;;6.55;100.00;99324.38;6165748;28;20611;-85
2023/01/13 05:31:41;;;;;;;10.05;2.40;;;;;;;6.71;100.00;99341.94;6159825;28;20054;-85
2023/01/13 05:34:43;;;;;;;11.68;2.20;;;;;;;6.63;100.00;99320.25;6165199;28;20078;-85
2023/01/13 05:37:45;;;;;;;10.55;2.40;;;;;;;6.57;100.00;99325.91;6163923;28;20078;-85
2023/01/13 05:44:07;;;;;;;10.13;2.40;;;;;;;6.36;100.00;99300.19;6165086;28;20290;-85
2023/01/13 05:47:09;;;;;;;16.42;3.03;;;;;;;6.36;100.00;99313.03;6158951;28;20045;-84
2023/01/13 05:50:11;;;;;;;10.93;2.30;;;;;;;6.17;100.00;99318.84;6164693;28;20389;-85
2023/01/13 05:53:13;;;;;;;10.60;2.95;;;;;;;6.13;100.00;99314.88;6159102;28;20177;-85
2023/01/13 05:56:16;;;;;;;12.80;3.05;;;;;;;6.50;100.00;99306.75;6164739;28;20050;-84
2023/01/13 05:59:18;;;;;;;8.90;2.95;;;;;;;6.71;100.00;99306.78;6177578;28;20418;-84
2023/01/13 06:02:20;;;;;;;15.07;3.10;;;;;;;6.85;100.00;99305.63;6160662;28;20119;-84
2023/01/13 06:05:22;;;;;;;15.00;3.10;;;;;;;7.05;100.00;99311.66;6159437;28;20034;-84
2023/01/13 06:08:24;;;;;;;11.07;2.50;;;;;;;7.21;100.00;99306.88;6160471;28;20043;-84
2023/01/13 06:11:26;;;;;;;9.77;2.75;;;;;;;7.14;100.00;99287.75;6164853;28;20038;-84
2023/01/13 06:14:38;;;;;;;8.80;2.22;;;;;;;7.06;100.00;99292.72;6164524;28;20452;-84
2023/01/13 06:17:40;;;;;;;6.20;2.28;;;;;;;6.99;100.00;99297.56;6163095;28;20715;-84
2023/01/13 06:20:42;;;;;;;5.50;1.73;;;;;;;6.92;100.00;99300.78;6151743;28;20434;-84
2023/01/13 06:23:44;;;;;;;16.42;2.90;;;;;;;6.98;100.00;99305.41;6163759;28;20544;-84
2023/01/13 06:26:45;;;;;;;9.13;1.95;;;;;;;7.12;100.00;99316.16;6163363;28;20158;-84
2023/01/13 06:29:47;;;;;;;11.20;2.35;;;;;;;7.18;100.00;99312.28;6163122;28;20035;-84
2023/01/13 06:32:54;;;;;;;9.85;2.47;;;;;;;7.23;100.00;99301.56;6163186;28;20049;-84
2023/01/13 06:36:00;;;;;;;10.05;2.15;;;;;;;7.30;100.00;99300.97;6164752;28;20499;-84
2023/01/13 06:39:03;;;;;;;10.68;2.05;;;;;;;7.23;100.00;99304.16;6162527;28;20039;-84
2023/01/13 06:45:28;;;;;;;;;;;;;;;6.95;100.00;99296.19;6173273;28;20046;-84
2023/01/13 06:48:33;;;;;;;6.20;1.77;;;;;;;6.85;100.00;99293.56;6158064;28;19926;-84
2023/01/13 06:51:36;;;;;;;6.55;1.58;;;;;;;6.90;100.00;99282.91;6162752;28;20148;-84
2023/01/13 06:54:37;;;;;;;5.72;1.60;;;;;;;6.66;100.00;99284.00;6161684;28;20089;-84
2023/01/13 06:57:56;;;;;;;9.43;1.60;;;;;;;6.51;100.00;99287.84;6164422;28;20043;-84
2023/01/13 07:00:59;;;;;;;5.50;1.00;;;;;;;6.41;100.00;99307.50;6164468;28;20038;-84
2023/01/13 07:04:41;;;;;;;6.25;1.42;;;;;;;6.35;100.00;99315.72;6160290;28;20181;-84
2023/01/13 07:08:30;;;;;;;8.77;1.40;;;;;;;6.12;100.00;99333.00;6154388;28;20496;-83
2023/01/13 07:11:32;;;;;;;3.67;1.27;;;;;;;6.50;100.00;99334.22;6158210;28;20049;-83
2023/01/13 07:17:54;;;;;;;;;;;;;;;6.52;100.00;99312.59;6162853;28;20170;-84
2023/01/13 07:21:01;;;;;;;7.88;1.48;;;;;;;6.54;100.00;99321.00;6162967;28;20393;-84
2023/01/13 07:24:03;;;;;;;4.75;1.02;;;;;;;6.65;100.00;99322.69;6156914;28;20046;-83
2023/01/13 07:27:04;;;;;;;8.88;1.67;;;;;;;6.67;100.00;99319.06;6161905;28;20059;-84
2023/01/13 07:30:07;;;;;;;5.60;1.30;;;;;;;6.69;100.00;99326.66;6160459;28;20058;-84
2023/01/13 07:33:09;;;;;;;6.85;1.67;;;;;;;6.63;100.00;99337.44;6157435;28;20050;-84
2023/01/13 07:36:11;;;;;;;7.68;1.80;;;;;;;6.55;100.00;99337.25;6155597;28;20501;-84
2023/01/13 07:39:13;;;;;;;9.50;1.63;;;;;;;6.50;100.00;99347.09;6162531;28;20043;-84
2023/01/13 07:45:37;;;;;;;7.80;1.70;;;;;;;6.67;100.00;99352.47;6162862;28;20058;-84
2023/01/13 07:48:39;;;;;;;7.05;1.38;;;;;;;6.77;100.00;99352.53;6162514;28;20050;-84
2023/01/13 07:51:40;;;;;;;3.97;1.20;;;;;;;6.75;100.00;99344.13;6155475;28;20048;-84
2023/01/13 07:54:42;;;;;;;7.68;1.38;;;;;;;6.80;100.00;99343.75;6159504;28;20047;-84
2023/01/13 07:57:44;;;;;;;3.92;1.30;;;;;;;6.94;100.00;99350.34;6160734;28;20067;-84
2023/01/13 08:00:46;;;;;;;4.47;1.30;;;;;;;7.10;100.00;99350.69;6159587;28;20038;-84
2023/01/13 08:03:47;;;;;;;8.07;2.10;;;;;;;7.03;100.00;99354.72;6143485;28;20043;-84
2023/01/13 08:06:49;;;;;;;10.68;1.73;;;;;;;7.11;100.00;99349.78;6162812;28;20209;-84
2023/01/13 08:09:51;;;;;;;3.85;1.45;;;;;;;7.06;100.00;99357.88;6162631;28;20050;-84
2023/01/13 08:16:14;;;;;;;6.35;1.77;;;;;;;6.86;100.00;99358.72;6154039;28;20045;-83
2023/01/13 08:19:16;;;;;;;4.72;1.50;;;;;;;7.00;100.00;99350.66;6153257;28;20062;-84
2023/01/13 08:22:18;;;;;;;7.95;2.15;;;;;;;7.24;100.00;99357.28;6143745;28;20402;-83
2023/01/13 08:25:19;;;;;;;7.50;1.77;;;;;;;7.39;100.00;99362.91;6162067;28;20046;-83
2023/01/13 08:28:22;;;;;;;8.27;1.88;;;;;;;7.37;100.00;99365.59;6163335;28;20050;-83
2023/01/13 08:31:24;;;;;;;8.32;2.00;;;;;;;7.37;100.00;99373.31;6161199;28;20448;-84
2023/01/13 08:34:26;;;;;;;7.53;1.55;;;;;;;7.38;100.00;99379.25;6160219;28;20062;-83
2023/01/13 08:37:28;;;;;;;7.20;2.00;;;;;;;7.47;100.00;99384.47;6147158;28;20042;-84
2023/01/13 08:40:30;;;;;;;10.80;2.00;;;;;;;7.45;100.00;99382.97;6151553;28;20047;-84
2023/01/13 08:43:32;;;;;;;9.93;2.53;;;;;;;7.33;100.00;99383.06;6148620;28;20094;-84
2023/01/13 08:46:34;;;;;;;6.43;1.85;;;;;;;7.28;100.00;99379.25;6159499;28;20046;-84
2023/01/13 08:49:36;;;;;;;6.43;1.80;;;;;;;7.30;100.00;99385.91;6158624;28;20059;-86
2023/01/13 08:52:38;;;;;;;10.82;2.17;;;;;;;7.43;100.00;99377.97;6162028;28;20087;-86
2023/01/13 08:55:40;;;;;;;3.67;1.90;;;;;;;7.53;100.00;99378.00;6162153;28;20031;-86
2023/01/13 08:58:42;;;;;;;8.38;2.20;;;;;;;7.62;100.00;99389.25;6154443;28;20043;-86
2023/01/13 09:01:44;;;;;;;6.75;1.73;;;;;;;7.72;100.00;99388.34;6152608;28;20039;-86
2023/01/13 09:04:47;;;;;;;10.30;2.20;;;;;;;7.73;100.00;99384.84;6156960;28;20055;-84
2023/01/13 09:07:49;;;;;;;8.07;1.90;;;;;;;7.65;100.00;99387.25;6157748;28;20058;-84
2023/01/13 09:10:50;;;;;;;7.63;1.90;;;;;;;7.44;100.00;99378.75;6162230;28;20042;-84
2023/01/13 09:13:52;;;;;;;9.45;2.17;;;;;;;7.30;100.00;99383.31;6149336;28;20046;-83
2023/01/13 09:16:55;;;;;;;6.38;1.83;;;;;;;7.22;100.00;99393.41;6162580;28;20042;-84
2023/01/13 09:19:56;;;;;;;5.65;1.85;;;;;;;7.43;100.00;99398.56;6151127;28;20050;-84
2023/01/13 09:22:58;;;;;;;13.75;2.85;;;;;;;7.77;100.00;99408.56;6152169;28;20047;-83
2023/01/13 09:26:00;;;;;;;6.50;1.95;;;;;;;7.94;100.00;99405.34;6148584;28;20492;-83
2023/01/13 09:29:02;;;;;;;5.18;1.90;;;;;;;8.10;100.00;99402.28;6153192;28;20504;-83
2023/01/13 09:32:04;;;;;;;6.20;1.85;;;;;;;8.17;100.00;99416.28;6152616;28;20043;-83
2023/01/13 09:35:06;;;;;;;7.63;1.67;;;;;;;8.18;100.00;99409.34;6150460;28;20466;-83
2023/01/13 09:38:08;;;;;;;8.80;2.17;;;;;;;8.19;100.00;99421.28;6168957;28;20497;-83
2023/01/13 09:44:56;;;;;;;7.32;2.08;;;;;;;8.32;100.00;99411.53;6155440;28;20527;-84
2023/01/13 09:48:10;;;;;;;8.10;1.77;;;;;;;8.25;100.00;99405.28;6150457;28;20524;-83
2023/01/13 09:51:23;;;;;;;7.65;1.92;;;;;;;8.24;100.00;99423.47;6163451;28;20070;-83
2023/01/13 09:54:32;;;;;;;6.65;1.90;;;;;;;8.29;100.00;99424.69;6149077;28;20405;-83
2023/01/13 09:57:36;;;;;;;8.05;1.77;;;;;;;8.40;100.00;99436.69;6145079;28;20050;-83
2023/01/13 10:00:46;;;;;;;6.10;1.77;;;;;;;8.50;100.00;99432.34;6144864;28;20059;-83
2023/01/13 10:03:48;;;;;;;6.80;1.83;;;;;;;8.42;100.00;99432.19;6153925;28;20532;-84
2023/01/13 10:06:55;;;;;;;7.95;2.35;;;;;;;8.41;100.00;99426.22;6150370;28;20043;-84
2023/01/13 10:09:58;;;;;;;10.32;2.13;;;;;;;8.34;100.00;99421.69;6162273;28;20185;-83
2023/01/13 10:13:13;;;;;;;7.13;2.00;;;;;;;8.35;100.00;99431.91;6160264;28;20519;-83
2023/01/13 10:16:41;;;;;;;6.30;1.73;;;;;;;8.31;100.00;99433.09;6164246;28;20675;-83
2023/01/13 10:19:49;;;;;;;9.27;1.92;;;;;;;8.24;100.00;99419.13;6160364;28;20081;-83
2023/01/13 10:23:04;;;;;;;7.90;1.83;;;;;;;8.20;100.00;99433.22;6151782;28;20043;-84
2023/01/13 10:26:16;;;;;;;7.20;1.92;;;;;;;8.15;100.00;99430.25;6150421;28;20081;-84
2023/01/13 10:29:26;;;;;;;8.27;1.25;;;;;;;8.20;100.00;99433.22;6149529;28;20059;-84
2023/01/13 10:32:28;;;;;;;14.30;2.33;;;;;;;8.21;100.00;99424.53;6142452;28;20047;-84
2023/01/13 10:35:52;;;;;;;9.00;2.00;;;;;;;8.27;100.00;99423.19;6143953;28;20511;-84
2023/01/13 10:39:06;;;;;;;8.45;2.03;;;;;;;8.24;100.00;99416.53;6151403;28;20228;-84
2023/01/13 10:42:14;;;;;;;8.38;2.20;;;;;;;8.26;100.00;99432.69;6151431;28;20043;-84
2023/01/13 10:45:24;;;;;;;5.05;1.73;;;;;;;8.31;100.00;99417.63;6145692;28;20046;-84
2023/01/13 10:48:58;;;;;;;7.38;1.73;;;;;;;8.34;100.00;99421.69;6144665;28;20047;-84
2023/01/13 10:52:01;;;;;;;8.35;1.73;;;;;;;8.41;100.00;99420.25;6148273;28;20051;-84
2023/01/13 10:55:24;;;;;;;11.05;1.80;;;;;;;8.44;100.00;99404.50;6147365;28;20046;-84
2023/01/13 10:58:27;;;;;;;7.07;1.60;;;;;;;8.43;100.00;99399.50;6147077;28;20416;-84
2023/01/13 11:01:29;;;;;;;6.03;1.48;;;;;;;8.33;100.00;99418.31;6145879;28;20054;-84
2023/01/13 11:04:41;;;;;;;5.80;1.90;;;;;;;8.26;100.00;99408.69;6152035;28;20545;-84
2023/01/13 11:07:56;;;;;;;5.55;2.00;;;;;;;8.12;100.00;99412.44;6151380;28;20513;-84
2023/01/13 11:10:59;;;;;;;8.25;1.38;;;;;;;8.12;100.00;99422.75;6168826;28;20360;-84
2023/01/13 11:17:39;;;;;;;10.00;1.95;;;;;;;8.23;100.00;99427.00;6159976;28;20093;-84
2023/01/13 11:20:46;;;;;;;6.80;1.80;;;;;;;8.36;100.00;99420.63;6162944;28;20185;-84
2023/01/13 11:24:02;;;;;;;7.95;2.00;;;;;;;8.44;100.00;99440.59;6163050;28;20042;-84
2023/01/13 11:27:19;;;;;;;8.15;1.50;;;;;;;8.55;100.00;99443.06;6163850;28;20084;-84
2023/01/13 11:30:28;;;;;;;6.85;2.00;;;;;;;8.69;100.00;99430.72;6159438;28;20520;-85
2023/01/13 11:33:54;;;;;;;8.52;1.67;;;;;;;8.80;100.00;99433.97;6163499;28;20117;-84
2023/01/13 11:36:59;;;;;;;9.43;2.03;;;;;;;8.73;100.00;99434.66;6158291;28;20173;-84
2023/01/13 11:40:27;;;;;;;8.80;1.85;;;;;;;8.68;100.00;99447.97;6153641;28;20065;-84
2023/01/13 11:43:38;;;;;;;7.50;1.80;;;;;;;8.72;100.00;99428.69;6152845;28;20117;-84
2023/01/13 11:46:40;;;;;;;8.07;1.85;;;;;;;8.66;100.00;99444.69;6163245;28;20412;-86
2023/01/13 11:49:47;;;;;;;9.98;2.25;;;;;;;8.63;100.00;99443.19;6161744;28;20156;-86
2023/01/13 11:53:03;;;;;;;12.30;2.08;;;;;;;8.55;100.00;99440.50;6161546;28;20133;-89
2023/01/13 11:56:08;;;;;;;8.50;2.63;;;;;;;8.42;100.00;99439.91;6163068;28;20047;-88
2023/01/13 11:59:16;;;;;;;7.95;1.80;;;;;;;8.29;100.00;99424.69;6162111;28;20054;-87
2023/01/13 12:02:52;;;;;;;8.30;1.80;;;;;;;8.23;100.00;99427.81;6159866;28;20106;-85
2023/01/13 12:06:32;;;;;;;6.45;1.60;;;;;;;8.20;100.00;99420.34;6165766;28;20042;-86
2023/01/13 12:09:46;;;;;;;5.90;2.10;;;;;;;8.25;100.00;99425.91;6151506;28;20571;-85
2023/01/13 12:13:14;;;;;;;7.10;1.90;;;;;;;8.40;100.00;99419.44;6162886;28;20106;-85
2023/01/13 12:16:22;;;;;;;10.82;2.15;;;;;;;8.48;100.00;99418.78;6150869;28;20062;-85
2023/01/13 12:19:26;;;;;;;8.43;2.13;;;;;;;8.47;100.00;99426.63;6145599;28;20058;-85
2023/01/13 12:22:32;;;;;;;7.57;2.15;;;;;;;8.43;100.00;99417.56;6153097;28;20043;-84
2023/01/13 12:25:46;;;;;;;5.97;1.95;;;;;;;8.35;100.00;99431.91;6142483;28;20035;-84
2023/01/13 12:29:17;;;;;;;8.02;2.08;;;;;;;8.20;100.00;99430.66;6145551;28;20054;-83
2023/01/13 12:32:27;;;;;;;10.80;2.38;;;;;;;8.03;100.00;99433.88;6149576;28;20042;-83
2023/01/13 12:35:40;;;;;;;11.35;2.97;;;;;;;8.08;100.00;99429.13;6149884;28;20043;-83
2023/01/13 12:38:50;;;;;;;9.50;2.00;;;;;;;8.01;100.00;99428.84;6150087;28;20050;-83
2023/01/13 12:45:12;;;;;;;9.00;2.50;;;;;;;7.77;100.00;99427.41;6147105;28;20046;-83
2023/01/13 12:48:45;;;;;;;7.78;2.70;;;;;;;7.91;100.00;99420.28;6162267;28;20039;-83
2023/01/13 12:51:53;;;;;;;7.82;2.00;;;;;;;7.92;100.00;99437.34;6153918;28;20051;-83
2023/01/13 12:54:55;;;;;;;10.13;2.13;;;;;;;8.09;100.00;99433.34;6150656;28;20043;-83
2023/01/13 12:58:09;;;;;;;6.45;2.10;;;;;;;8.08;100.00;99435.09;6151844;28;20050;-84
2023/01/13 13:01:13;;;;;;;9.10;2.30;;;;;;;8.00;100.00;99424.66;6151981;28;20511;-84
2023/01/13 13:04:48;;;;;;;10.25;2.28;;;;;;;8.20;100.00;99417.78;6147949;28;20624;-84
2023/01/13 13:08:17;;;;;;;7.57;1.95;;;;;;;8.29;100.00;99422.09;6154946;28;20047;-84
2023/01/13 13:14:59;;;;;;;11.00;2.20;;;;;;;8.25;100.00;99436.22;6157437;28;20066;-84
2023/01/13 13:18:05;;;;;;;17.33;2.55;;;;;;;8.23;100.00;99432.16;6154635;28;20047;-84
2023/01/13 13:21:08;;;;;;;8.82;2.42;;;;;;;8.10;100.00;99443.53;6161041;28;20051;-84
2023/01/13 13:24:10;;;;;;;10.00;2.22;;;;;;;7.85;100.00;99439.66;6160883;28;20038;-84
2023/01/13 13:27:30;;;;;;;10.38;2.70;;;;;;;7.58;100.00;99462.56;6155869;28;20046;-84
2023/01/13 13:30:36;;;;;;;11.02;2.85;;;;;;;7.37;100.00;99460.03;6160089;28;20039;-84
2023/01/13 13:33:57;;;;;;;15.20;2.90;;;;;;;7.23;100.00;99486.88;6158581;28;20050;-86
2023/01/13 13:37:17;;;;;;;;;;;;;;;6.98;100.00;99509.50;6154267;28;20345;-89
2023/01/13 13:47:05;;;;;;;9.63;2.40;;;;;;;6.40;100.00;99545.72;6157179;28;20043;-88
2023/01/13 13:50:13;;;;;;;9.77;2.40;;;;;;;6.39;100.00;99561.28;6155231;28;20054;-89
2023/01/13 13:53:17;;;;;;;8.23;3.00;;;;;;;6.44;100.00;99554.84;6151780;28;20469;-89
2023/01/13 13:56:24;;;;;;;4.45;2.10;;;;;;;6.52;100.00;99543.16;6153174;28;20047;-89
2023/01/13 13:59:32;;;;;;;7.55;2.33;;;;;;;6.56;100.00;99549.69;6157751;28;20283;-89
2023/01/13 14:02:36;;;;;;;8.27;2.25;;;;;;;6.49;100.00;99556.25;6153765;28;20612;-88
2023/01/13 14:05:38;;;;;;;8.57;2.30;;;;;;;6.56;100.00;99553.09;6158304;28;20050;-88
2023/01/13 14:08:43;;;;;;;10.25;2.08;;;;;;;6.56;100.00;99554.81;6159702;28;20054;-87
2023/01/13 14:12:02;;;;;;;7.00;1.80;;;;;;;6.58;100.00;99552.94;6155781;28;20050;-86
2023/01/13 14:15:04;;;;;;;3.63;1.70;;;;;;;6.62;100.00;99552.59;6161642;28;20295;-87
2023/01/13 14:18:20;;;;;;;7.00;2.25;;;;;;;6.58;100.00;99563.25;6151718;28;20213;-86
2023/01/13 14:21:32;;;;;;;9.35;2.33;;;;;;;6.63;100.00;99561.13;6128692;28;20054;-87
2023/01/13 14:24:45;;;;;;;9.35;2.17;;;;;;;6.66;100.00;99558.34;6149478;28;20900;-86
2023/01/13 14:27:49;;;;;;;9.50;2.35;;;;;;;6.72;100.00;99563.00;6145970;28;20449;-86
2023/01/13 14:30:52;;;;;;;15.52;2.72;;;;;;;6.85;100.00;99557.69;6145248;28;20113;-86
2023/01/13 14:33:57;;;;;;;7.55;3.13;;;;;;;6.92;100.00;99552.88;6152955;28;20071;-86
2023/01/13 14:37:01;;;;;;;10.15;1.60;;;;;;;6.86;100.00;99573.00;6150637;28;20540;-85
2023/01/13 14:40:06;;;;;;;10.30;1.95;;;;;;;6.89;100.00;99566.81;6145218;28;20043;-86
2023/01/13 14:43:14;;;;;;;5.72;1.70;;;;;;;6.94;100.00;99562.13;6149721;28;20038;-86
2023/01/13 14:46:16;;;;;;;7.60;1.67;;;;;;;6.93;100.00;99565.59;6161738;28;20049;-86
2023/01/13 14:49:22;;;;;;;13.40;2.40;;;;;;;6.89;100.00;99575.34;6141668;28;20433;-86
2023/01/13 14:52:27;;;;;;;7.93;1.92;;;;;;;6.98;100.00;99571.22;6170252;28;20078;-86
2023/01/13 14:55:40;;;;;;;7.40;1.60;;;;;;;6.96;100.00;99573.09;6159806;28;20045;-85
2023/01/13 14:58:42;;;;;;;10.80;2.83;;;;;;;6.93;100.00;99583.63;6147979;28;20062;-86
2023/01/13 15:01:43;;;;;;;9.77;1.50;;;;;;;6.94;100.00;99572.41;6152301;28;20051;-85
2023/01/13 15:04:45;;;;;;;10.13;2.38;;;;;;;7.02;100.00;99589.81;6157208;28;20047;-85
2023/01/13 15:08:13;;;;;;;5.35;1.92;;;;;;;7.09;100.00;99585.81;6149370;28;20485;-85
2023/01/13 15:11:27;;;;;;;7.07;1.37;;;;;;;7.08;100.00;99587.56;6145887;28;20047;-86
2023/01/13 15:14:32;;;;;;;8.23;1.40;;;;;;;7.02;100.00;99580.31;6153334;28;20763;-86
2023/01/13 15:17:34;;;;;;;10.98;1.75;;;;;;;7.06;100.00;99588.63;6166293;28;20039;-85
2023/01/13 15:20:35;;;;;;;9.90;2.03;;;;;;;6.97;100.00;99600.47;6149201;28;20055;-85
2023/01/13 15:23:46;;;;;;;5.68;1.20;;;;;;;6.92;100.00;99601.75;6147785;28;20386;-86
2023/01/13 15:26:47;;;;;;;6.07;1.27;;;;;;;6.89;100.00;99602.81;6154741;28;20043;-85
2023/01/13 15:29:49;;;;;;;7.30;1.30;;;;;;;6.72;100.00;99617.00;6150021;28;20185;-85
2023/01/13 15:32:57;;;;;;;6.32;1.52;;;;;;;6.68;100.00;99629.28;6143158;28;20077;-85
2023/01/13 15:36:00;;;;;;;5.45;1.25;;;;;;;6.83;100.00;99621.28;6154410;28;20118;-85
2023/01/13 15:39:02;;;;;;;8.20;1.80;;;;;;;6.84;100.00;99615.22;6152792;28;20549;-85
2023/01/13 15:48:46;;;;;;;5.78;1.70;;;;;;;6.42;100.00;99638.16;6151122;28;20042;-85
2023/01/13 15:51:55;;;;;;;4.50;1.13;;;;;;;6.44;100.00;99638.88;6153798;28;20576;-84